Time;durP1;ratioP1;P1;durP2;ratioP2;P2;SDS_P1;SDS_P2;PMS_P1;PMS_P2;Temp;Humidity;BMP_temperature;BMP_pressure;BME280_temperature;BME280_humidity;BME280_pressure;Samples;Min_cycle;Max_cycle;Signal;HPM_P1;HPM_P2
2021/10/12 00:00:43;;;;;;;9.60;5.97;;;8.90;89.80;;;;;;5018617;28;20083;-91
2021/10/12 00:03:09;;;;;;;10.88;5.65;;;8.90;89.80;;;;;;5018830;28;20032;-91
2021/10/12 00:05:35;;;;;;;14.05;8.35;;;8.90;89.60;;;;;;5018848;28;20092;-91
2021/10/12 00:08:00;;;;;;;13.63;7.30;;;8.90;89.80;;;;;;5019150;28;20053;-91
2021/10/12 00:10:26;;;;;;;12.25;6.10;;;8.90;89.80;;;;;;5018427;28;20033;-91
2021/10/12 00:12:52;;;;;;;17.38;8.20;;;8.90;89.60;;;;;;5018413;28;20057;-91
2021/10/12 00:15:18;;;;;;;12.00;7.05;;;8.90;89.70;;;;;;5018966;28;20029;-91
2021/10/12 00:17:43;;;;;;;11.07;6.72;;;8.90;90.00;;;;;;5018315;28;20136;-91
2021/10/12 00:20:09;;;;;;;9.52;5.93;;;8.90;90.00;;;;;;5018492;28;20026;-91
2021/10/12 00:22:36;;;;;;;11.82;6.70;;;8.80;90.10;;;;;;5018726;28;20112;-91
2021/10/12 00:25:02;;;;;;;15.23;6.18;;;8.80;90.10;;;;;;5019192;28;20022;-91
2021/10/12 00:27:27;;;;;;;12.52;7.30;;;8.80;90.20;;;;;;5018290;28;20022;-91
2021/10/12 00:29:53;;;;;;;11.48;6.10;;;8.80;90.20;;;;;;5019593;28;20251;-91
2021/10/12 00:32:19;;;;;;;10.25;5.40;;;8.80;90.30;;;;;;5018534;28;20457;-91
2021/10/12 00:34:44;;;;;;;7.85;5.25;;;8.80;90.30;;;;;;5018797;28;20029;-91
2021/10/12 00:37:12;;;;;;;11.68;6.18;;;8.80;90.30;;;;;;5018906;28;20041;-91
2021/10/12 00:39:39;;;;;;;9.07;5.32;;;8.80;90.40;;;;;;5024956;28;20036;-91
2021/10/12 00:42:05;;;;;;;10.75;6.75;;;8.80;90.50;;;;;;5025237;28;20052;-91
2021/10/12 00:44:31;;;;;;;7.45;4.80;;;8.80;90.50;;;;;;5038355;28;20033;-91
2021/10/12 00:46:57;;;;;;;10.55;5.18;;;8.80;90.50;;;;;;5018594;28;20030;-91
2021/10/12 00:49:23;;;;;;;9.35;5.22;;;8.80;90.60;;;;;;5018428;28;20457;-91
2021/10/12 00:51:49;;;;;;;11.45;6.15;;;8.80;90.70;;;;;;5037046;28;20029;-91
2021/10/12 00:54:14;;;;;;;7.68;4.68;;;8.80;90.70;;;;;;5036163;28;20033;-91
2021/10/12 00:56:41;;;;;;;13.63;6.93;;;8.80;90.70;;;;;;5018182;28;20026;-91
2021/10/12 00:59:07;;;;;;;11.15;5.47;;;8.80;90.60;;;;;;5017973;28;20476;-91
2021/10/12 01:01:33;;;;;;;10.75;5.00;;;8.80;90.70;;;;;;5018893;28;20037;-91
2021/10/12 01:03:59;;;;;;;8.40;4.88;;;8.80;90.70;;;;;;5017874;28;20033;-91
2021/10/12 01:06:25;;;;;;;9.82;5.72;;;8.80;90.80;;;;;;5017656;28;20140;-91
2021/10/12 01:08:51;;;;;;;8.57;5.32;;;8.80;90.80;;;;;;5017572;28;20075;-91
2021/10/12 01:11:16;;;;;;;10.82;5.85;;;8.80;90.80;;;;;;5034768;28;20025;-92
2021/10/12 01:13:42;;;;;;;10.13;5.30;;;8.80;90.80;;;;;;5017457;28;20456;-91
2021/10/12 01:16:08;;;;;;;9.85;5.75;;;8.80;90.90;;;;;;5035047;28;20421;-91
2021/10/12 01:18:36;;;;;;;11.90;6.43;;;8.80;90.90;;;;;;5016943;28;20392;-91
2021/10/12 01:21:02;;;;;;;8.30;4.57;;;8.80;90.90;;;;;;5018453;28;20021;-91
2021/10/12 01:23:28;;;;;;;9.77;5.07;;;8.80;91.00;;;;;;5017902;28;20060;-91
2021/10/12 01:25:54;;;;;;;12.32;5.15;;;8.80;91.10;;;;;;5017088;28;20041;-91
2021/10/12 01:28:20;;;;;;;9.93;5.60;;;8.70;91.00;;;;;;5017076;28;20037;-90
2021/10/12 01:30:45;;;;;;;12.13;5.65;;;8.70;91.10;;;;;;5016649;28;20048;-90
2021/10/12 01:33:11;;;;;;;8.77;5.20;;;8.70;91.10;;;;;;5034335;28;20112;-91
2021/10/12 01:35:37;;;;;;;8.35;5.18;;;8.70;91.10;;;;;;5017153;28;20037;-91
2021/10/12 01:38:03;;;;;;;12.45;5.75;;;8.70;91.20;;;;;;5017797;28;20029;-91
2021/10/12 01:40:29;;;;;;;9.45;5.60;;;8.70;91.30;;;;;;5017631;28;20460;-91
2021/10/12 01:42:58;;;;;;;8.95;5.50;;;8.60;91.50;;;;;;5017345;28;20032;-91
2021/10/12 01:45:24;;;;;;;8.88;5.30;;;8.70;91.50;;;;;;5017564;28;20029;-91
2021/10/12 01:47:52;;;;;;;7.57;5.15;;;8.70;91.90;;;;;;5017586;28;20029;-90
2021/10/12 01:50:19;;;;;;;11.57;5.72;;;8.70;91.80;;;;;;5021463;28;20030;-90
2021/10/12 01:52:44;;;;;;;9.60;5.53;;;8.70;91.90;;;;;;5021406;28;20040;-91
2021/10/12 01:55:10;;;;;;;7.15;4.90;;;8.70;92.00;;;;;;5039285;28;20025;-90
2021/10/12 01:57:36;;;;;;;12.57;6.55;;;8.70;92.10;;;;;;5021739;28;20025;-91
2021/10/12 02:00:04;;;;;;;11.70;6.82;;;8.70;92.10;;;;;;5021175;28;20407;-90
2021/10/12 02:02:30;;;;;;;8.48;5.63;;;8.70;92.00;;;;;;5020676;28;20057;-91
2021/10/12 02:04:56;;;;;;;7.57;5.15;;;8.70;92.00;;;;;;5021315;28;20034;-91
2021/10/12 02:07:21;;;;;;;17.00;7.05;;;8.70;92.00;;;;;;5038177;28;20036;-91
2021/10/12 02:09:47;;;;;;;11.68;6.75;;;8.70;92.00;;;;;;5020790;28;20029;-91
2021/10/12 02:12:13;;;;;;;12.98;8.73;;;8.70;92.00;;;;;;5020986;28;20037;-91
2021/10/12 02:14:38;;;;;;;11.48;6.78;;;8.70;92.10;;;;;;5020549;28;20116;-91
2021/10/12 02:17:04;;;;;;;9.52;6.10;;;8.70;92.20;;;;;;5038555;28;20057;-91
2021/10/12 02:19:30;;;;;;;11.38;6.40;;;8.70;92.20;;;;;;5039093;28;20029;-91
2021/10/12 02:21:55;;;;;;;14.38;7.40;;;8.70;92.30;;;;;;5020763;28;20155;-91
2021/10/12 02:24:21;;;;;;;11.15;7.35;;;8.70;92.30;;;;;;5038411;28;20029;-91
2021/10/12 02:26:47;;;;;;;15.98;6.90;;;8.70;92.40;;;;;;5038603;28;20033;-91
2021/10/12 02:29:13;;;;;;;14.10;7.53;;;8.70;92.40;;;;;;5020798;28;20025;-91
2021/10/12 02:31:39;;;;;;;13.52;6.93;;;8.70;92.60;;;;;;5020656;28;20115;-91
2021/10/12 02:34:04;;;;;;;14.75;8.75;;;8.70;92.50;;;;;;5038216;28;20033;-91
2021/10/12 02:36:30;;;;;;;13.82;7.63;;;8.70;92.70;;;;;;5037475;28;20171;-91
2021/10/12 02:38:56;;;;;;;13.65;7.60;;;8.70;92.70;;;;;;5020218;28;20029;-90
2021/10/12 02:41:21;;;;;;;11.35;5.47;;;8.70;92.60;;;;;;5021398;28;20025;-91
2021/10/12 02:43:47;;;;;;;14.27;6.72;;;8.70;92.60;;;;;;5021247;28;20029;-91
2021/10/12 02:46:13;;;;;;;9.95;6.10;;;8.70;92.60;;;;;;5039390;28;20037;-91
2021/10/12 02:48:38;;;;;;;11.50;5.95;;;8.70;92.70;;;;;;5021691;28;20022;-91
2021/10/12 02:51:04;;;;;;;10.32;5.05;;;8.70;92.80;;;;;;5020918;28;20029;-91
2021/10/12 02:53:30;;;;;;;12.63;6.63;;;8.70;92.90;;;;;;5022586;28;20029;-91
2021/10/12 02:55:55;;;;;;;9.90;5.35;;;8.70;92.80;;;;;;5022950;28;20184;-91
2021/10/12 02:58:21;;;;;;;10.68;5.60;;;8.70;92.90;;;;;;5021224;28;20030;-91
2021/10/12 03:00:47;;;;;;;12.20;6.28;;;8.70;92.80;;;;;;5038717;28;20057;-91
2021/10/12 03:03:13;;;;;;;8.93;5.72;;;8.70;92.80;;;;;;5021047;28;20029;-91
2021/10/12 03:05:44;;;;;;;9.43;5.85;;;8.70;92.80;;;;;;5038770;28;20382;-91
2021/10/12 03:08:09;;;;;;;8.77;4.82;;;8.60;92.80;;;;;;5021940;28;20034;-91
2021/10/12 03:10:35;;;;;;;9.77;5.35;;;8.60;92.80;;;;;;5041284;28;20385;-91
2021/10/12 03:13:01;;;;;;;10.52;5.80;;;8.60;92.80;;;;;;5027681;28;20030;-91
2021/10/12 03:15:26;;;;;;;6.32;4.45;;;8.50;92.90;;;;;;5044427;28;20052;-91
2021/10/12 03:17:52;;;;;;;7.53;4.40;;;8.50;93.00;;;;;;5042301;28;20417;-91
2021/10/12 03:20:20;;;;;;;9.95;6.00;;;8.50;93.10;;;;;;5022535;28;20021;-91
2021/10/12 03:22:46;;;;;;;12.65;6.55;;;8.40;93.00;;;;;;5038233;28;20115;-91
2021/10/12 03:25:12;;;;;;;6.78;5.00;;;8.40;93.10;;;;;;5020500;28;20072;-91
2021/10/12 03:27:37;;;;;;;9.60;5.60;;;8.30;93.00;;;;;;5020751;28;20097;-91
2021/10/12 03:30:04;;;;;;;9.90;5.47;;;8.30;93.00;;;;;;5020638;28;20026;-90
2021/10/12 03:32:30;;;;;;;10.80;6.78;;;8.20;93.10;;;;;;5022203;28;20025;-91
2021/10/12 03:34:56;;;;;;;11.10;4.72;;;8.20;93.10;;;;;;5039744;28;20372;-91
2021/10/12 03:37:21;;;;;;;8.77;5.68;;;8.20;93.30;;;;;;5020563;28;20059;-91
2021/10/12 03:39:47;;;;;;;18.40;7.88;;;8.10;93.50;;;;;;5021743;28;20116;-91
2021/10/12 03:42:13;;;;;;;11.25;6.53;;;8.20;93.70;;;;;;5039572;28;20029;-91
2021/10/12 03:44:39;;;;;;;11.93;5.60;;;8.20;93.80;;;;;;5021843;28;20025;-91
2021/10/12 03:47:04;;;;;;;11.57;7.10;;;8.20;93.90;;;;;;5021459;28;20475;-91
2021/10/12 03:49:30;;;;;;;11.45;5.97;;;8.20;93.80;;;;;;5038034;28;20021;-91
2021/10/12 03:51:56;;;;;;;9.48;5.30;;;8.30;93.80;;;;;;5020756;28;20037;-91
2021/10/12 03:54:22;;;;;;;10.43;5.93;;;8.30;93.80;;;;;;5023732;28;20040;-90
2021/10/12 03:56:47;;;;;;;12.25;5.32;;;8.30;93.80;;;;;;5021892;28;20423;-91
2021/10/12 03:59:13;;;;;;;13.10;7.82;;;8.30;93.80;;;;;;5022498;28;20029;-91
2021/10/12 04:01:39;;;;;;;9.60;5.63;;;8.30;93.70;;;;;;5025761;28;20029;-90
2021/10/12 04:04:05;;;;;;;11.85;6.60;;;8.30;93.70;;;;;;5054928;28;20029;-90
2021/10/12 04:06:30;;;;;;;10.07;4.88;;;8.30;93.80;;;;;;5039043;28;20025;-90
2021/10/12 04:08:56;;;;;;;8.70;5.28;;;8.30;93.80;;;;;;5036363;28;20033;-91
2021/10/12 04:11:23;;;;;;;9.90;6.03;;;8.30;93.70;;;;;;5022183;28;20033;-91
2021/10/12 04:13:49;;;;;;;12.32;6.47;;;8.30;93.80;;;;;;5023715;28;20029;-90
2021/10/12 04:16:14;;;;;;;12.52;5.47;;;8.30;94.00;;;;;;5023234;28;20047;-91
2021/10/12 04:18:40;;;;;;;8.98;5.18;;;8.20;93.90;;;;;;5024632;28;20140;-91
2021/10/12 04:21:06;;;;;;;9.30;4.95;;;8.20;94.00;;;;;;5039111;28;20077;-91
2021/10/12 04:23:32;;;;;;;6.47;3.88;;;8.30;94.00;;;;;;5019267;28;20033;-91
2021/10/12 04:25:58;;;;;;;7.50;4.60;;;8.30;94.00;;;;;;5020048;28;20116;-91
2021/10/12 04:28:24;;;;;;;6.10;4.53;;;8.30;94.00;;;;;;5018615;28;20036;-91
2021/10/12 04:30:50;;;;;;;6.47;3.30;;;8.30;93.90;;;;;;5018122;28;20428;-91
2021/10/12 04:33:16;;;;;;;6.93;4.53;;;8.30;93.90;;;;;;5019082;28;20036;-90
2021/10/12 04:35:42;;;;;;;9.05;4.45;;;8.30;93.90;;;;;;5020702;28;20033;-91
2021/10/12 04:38:08;;;;;;;6.93;3.83;;;8.30;93.80;;;;;;5020241;28;20032;-91
2021/10/12 04:40:35;;;;;;;13.13;5.55;;;8.30;93.90;;;;;;5020439;28;20029;-90
2021/10/12 04:43:03;;;;;;;7.80;5.00;;;8.30;93.90;;;;;;5038192;28;20036;-91
2021/10/12 04:45:30;;;;;;;5.85;4.30;;;8.30;93.80;;;;;;5021310;28;20376;-91
2021/10/12 04:47:56;;;;;;;10.90;5.28;;;8.30;93.90;;;;;;5017925;28;20036;-90
2021/10/12 04:50:22;;;;;;;10.63;5.93;;;8.30;93.80;;;;;;5018661;28;20029;-91
2021/10/12 04:52:47;;;;;;;6.68;4.80;;;8.40;93.80;;;;;;5018297;28;20033;-91
2021/10/12 04:55:13;;;;;;;8.32;5.10;;;8.40;93.80;;;;;;5017580;28;20427;-91
2021/10/12 04:57:40;;;;;;;6.63;4.35;;;8.40;93.90;;;;;;5035301;28;20353;-92
2021/10/12 05:00:07;;;;;;;9.75;5.30;;;8.40;94.00;;;;;;5018045;28;20029;-91
2021/10/12 05:02:34;;;;;;;7.50;3.67;;;8.40;94.10;;;;;;5018949;28;20130;-91
2021/10/12 05:04:59;;;;;;;8.57;4.88;;;8.60;94.20;;;;;;5018364;28;20060;-91
2021/10/12 05:07:25;;;;;;;8.40;4.05;;;8.60;94.20;;;;;;5018226;28;20025;-91
2021/10/12 05:09:51;;;;;;;7.85;5.07;;;8.70;94.40;;;;;;5017165;28;20025;-91
2021/10/12 05:12:17;;;;;;;9.07;5.15;;;8.80;94.20;;;;;;5018458;28;20030;-91
2021/10/12 05:14:43;;;;;;;9.23;5.55;;;8.90;94.10;;;;;;5017194;28;20109;-91
2021/10/12 05:17:22;;;;;;;8.25;4.93;;;9.10;94.00;;;;;;5017687;28;20091;-91
2021/10/12 05:19:48;;;;;;;8.45;5.40;;;9.20;93.90;;;;;;4997298;28;20030;-91
2021/10/12 05:22:13;;;;;;;9.75;6.82;;;9.40;93.80;;;;;;4997998;28;20026;-91
2021/10/12 05:24:39;;;;;;;10.52;6.05;;;9.50;93.60;;;;;;5000329;28;20129;-90
2021/10/12 05:27:08;;;;;;;10.57;6.70;;;9.60;93.50;;;;;;5000116;28;20034;-91
2021/10/12 05:29:36;;;;;;;7.35;5.20;;;9.70;93.30;;;;;;5002619;28;20038;-91
2021/10/12 05:32:02;;;;;;;11.85;5.18;;;9.80;93.10;;;;;;5008364;28;20030;-91
2021/10/12 05:34:27;;;;;;;8.38;5.22;;;9.80;93.00;;;;;;5007172;28;20030;-92
2021/10/12 05:36:53;;;;;;;10.20;5.55;;;9.90;92.90;;;;;;5003546;28;20437;-91
2021/10/12 05:39:28;;;;;;;6.35;4.90;;;10.00;92.80;;;;;;5004970;28;20029;-92
2021/10/12 05:41:55;;;;;;;9.32;5.80;;;10.00;92.70;;;;;;5002983;28;20464;-91
2021/10/12 05:44:24;;;;;;;10.48;6.65;;;10.10;92.60;;;;;;5011567;28;20030;-92
2021/10/12 05:46:50;;;;;;;8.65;5.88;;;10.20;92.50;;;;;;5007912;28;20091;-91
2021/10/12 05:49:16;;;;;;;9.88;5.93;;;10.20;92.40;;;;;;5003518;28;20476;-90
2021/10/12 05:51:44;;;;;;;6.78;4.60;;;10.30;92.30;;;;;;4998123;28;20132;-91
2021/10/12 05:54:14;;;;;;;7.43;4.40;;;10.40;92.20;;;;;;4998870;28;20120;-90
2021/10/12 05:56:44;;;;;;;10.07;5.57;;;10.50;92.10;;;;;;5178194;23;20041;-92
2021/10/12 05:59:15;;;;;;;10.05;5.00;;;10.60;92.00;;;;;;5051767;28;20025;-92
2021/10/12 06:01:46;;;;;;;9.85;5.90;;;10.60;91.80;;;;;;5053331;28;20029;-92
2021/10/12 06:04:15;;;;;;;11.05;6.47;;;10.70;91.70;;;;;;5045514;28;20029;-92
2021/10/12 06:07:01;;;;;;;13.70;9.20;;;10.80;91.60;;;;;;5046962;28;20037;-91
2021/10/12 06:10:15;;;;;;;10.07;7.03;;;10.90;91.50;;;;;;5038558;28;20037;-92
2021/10/12 06:12:40;;;;;;;9.57;6.55;;;11.00;91.30;;;;;;5016802;28;20036;-92
2021/10/12 06:15:09;;;;;;;11.88;5.95;;;11.20;91.10;;;;;;5039510;28;20029;-92
2021/10/12 06:17:38;;;;;;;9.05;6.22;;;11.20;90.90;;;;;;5021246;28;20022;-92
2021/10/12 06:20:07;;;;;;;13.90;7.22;;;11.40;90.70;;;;;;5034346;28;20054;-91
2021/10/12 06:22:35;;;;;;;9.52;6.72;;;11.50;90.70;;;;;;5043402;28;20033;-92
2021/10/12 06:25:01;;;;;;;12.20;5.78;;;11.60;90.20;;;;;;5026869;28;20017;-92
2021/10/12 06:27:27;;;;;;;9.00;6.15;;;11.70;90.00;;;;;;5025038;28;20028;-92
2021/10/12 06:29:59;;;;;;;9.35;6.80;;;11.80;90.00;;;;;;5023463;28;20445;-92
2021/10/12 06:32:25;;;;;;;7.35;5.38;;;12.00;89.70;;;;;;5037975;28;20049;-91
2021/10/12 06:34:51;;;;;;;10.48;6.50;;;12.10;89.10;;;;;;5057023;28;20033;-89
2021/10/12 06:37:16;;;;;;;9.60;6.88;;;12.30;88.50;;;;;;5056152;28;20033;-91
2021/10/12 06:39:42;;;;;;;8.80;5.97;;;12.40;88.00;;;;;;5055221;28;20056;-91
2021/10/12 06:42:08;;;;;;;7.45;5.40;;;12.50;87.50;;;;;;5056715;28;20021;-93
2021/10/12 06:44:33;;;;;;;13.88;7.60;;;12.60;86.90;;;;;;5047780;28;20037;-92
2021/10/12 06:46:59;;;;;;;11.00;7.57;;;12.70;86.30;;;;;;5047932;28;20107;-92
2021/10/12 06:49:28;;;;;;;10.75;7.55;;;12.80;85.60;;;;;;5063837;28;20045;-94
2021/10/12 06:51:54;;;;;;;9.40;7.30;;;12.80;85.00;;;;;;5048105;28;20041;-93
2021/10/12 06:54:20;;;;;;;10.15;7.40;;;12.80;84.50;;;;;;5044591;28;20029;-93
2021/10/12 06:56:48;;;;;;;11.43;7.40;;;12.80;84.20;;;;;;5058792;28;20045;-93
2021/10/12 06:59:17;;;;;;;14.15;6.82;;;12.80;84.00;;;;;;5061615;28;20035;-92
2021/10/12 07:01:43;;;;;;;7.75;6.35;;;12.90;83.50;;;;;;5086878;28;20039;-92
2021/10/12 07:04:09;;;;;;;9.68;6.97;;;12.80;83.20;;;;;;5054984;28;20029;-93
2021/10/12 07:06:35;;;;;;;8.40;6.13;;;12.90;83.10;;;;;;5066202;28;20132;-91
2021/10/12 07:09:01;;;;;;;9.52;7.00;;;13.00;82.90;;;;;;5063440;28;20104;-92
2021/10/12 07:11:29;;;;;;;8.98;7.20;;;13.00;82.80;;;;;;5080573;28;20418;-91
2021/10/12 07:13:55;;;;;;;9.88;6.38;;;13.20;82.80;;;;;;5067850;28;20016;-92
2021/10/12 07:16:29;;;;;;;8.45;6.32;;;13.30;82.60;;;;;;5072579;28;20028;-92
2021/10/12 07:19:00;;;;;;;9.07;6.57;;;13.40;82.00;;;;;;5045973;28;20028;-92
2021/10/12 07:21:26;;;;;;;9.45;6.97;;;13.60;81.60;;;;;;5058444;28;20029;-92
2021/10/12 07:23:52;;;;;;;8.38;6.80;;;13.70;80.70;;;;;;5045028;28;20121;-92
2021/10/12 07:26:21;;;;;;;9.30;7.20;;;13.80;80.20;;;;;;5050233;28;20024;-93
2021/10/12 07:28:47;;;;;;;8.73;6.55;;;13.90;79.30;;;;;;5060878;28;20024;-92
2021/10/12 07:31:13;;;;;;;13.15;8.60;;;14.00;78.80;;;;;;5059439;28;20032;-92
2021/10/12 07:33:40;;;;;;;11.95;7.90;;;14.00;78.00;;;;;;5042446;28;20032;-91
2021/10/12 07:36:06;;;;;;;11.52;8.18;;;13.90;77.70;;;;;;5057453;28;20238;-92
2021/10/12 07:38:32;;;;;;;9.75;7.55;;;13.90;77.60;;;;;;5058034;28;20021;-92
2021/10/12 07:40:58;;;;;;;11.45;8.23;;;13.90;77.20;;;;;;5039098;28;20048;-92
2021/10/12 07:43:24;;;;;;;10.77;7.68;;;14.00;77.20;;;;;;5055778;28;20049;-91
2021/10/12 07:45:50;;;;;;;10.40;7.47;;;14.00;76.70;;;;;;5055402;28;20029;-91
2021/10/12 07:48:17;;;;;;;11.77;8.50;;;14.10;76.30;;;;;;5057584;28;20048;-93
2021/10/12 07:50:43;;;;;;;16.23;10.75;;;14.10;76.20;;;;;;5045765;28;20032;-91
2021/10/12 07:53:10;;;;;;;13.45;10.30;;;14.20;75.00;;;;;;5057476;28;20036;-92
2021/10/12 07:58:08;;;;;;;12.93;9.20;;;14.10;75.00;;;;;;5062142;28;20055;-91
2021/10/12 08:00:33;;;;;;;12.05;9.07;;;14.10;75.10;;;;;;5039441;28;20049;-90
2021/10/12 08:03:02;;;;;;;12.85;8.65;;;14.10;75.30;;;;;;5056383;28;20064;-92
2021/10/12 08:05:31;;;;;;;12.90;8.50;;;14.00;75.80;;;;;;5040752;28;20136;-91
2021/10/12 08:07:57;;;;;;;9.82;7.20;;;14.00;75.40;;;;;;5039695;28;20068;-91
2021/10/12 08:10:24;;;;;;;12.45;8.68;;;14.00;75.70;;;;;;5039332;28;20020;-92
2021/10/12 08:12:55;;;;;;;10.55;8.15;;;14.00;75.80;;;;;;5039358;28;20070;-91
2021/10/12 08:15:21;;;;;;;11.38;7.07;;;14.00;75.90;;;;;;5040369;28;20036;-92
2021/10/12 08:17:48;;;;;;;10.32;8.13;;;14.10;75.80;;;;;;5040876;28;20035;-92
2021/10/12 08:20:16;;;;;;;11.68;8.93;;;14.20;75.90;;;;;;5045655;28;20048;-92
2021/10/12 08:22:46;;;;;;;12.82;9.27;;;14.30;75.50;;;;;;5044940;28;20025;-92
2021/10/12 08:25:12;;;;;;;13.82;7.55;;;14.40;75.10;;;;;;5045553;28;20179;-92
2021/10/12 08:27:40;;;;;;;12.30;8.63;;;14.40;74.50;;;;;;5041556;28;20033;-92
2021/10/12 08:30:11;;;;;;;14.63;8.35;;;14.40;73.90;;;;;;5061715;28;20055;-92
2021/10/12 08:32:45;;;;;;;13.15;8.80;;;14.40;73.60;;;;;;5040916;28;20059;-92
2021/10/12 08:35:11;;;;;;;12.18;8.13;;;14.50;73.00;;;;;;5060245;28;20480;-92
2021/10/12 08:37:38;;;;;;;11.40;8.73;;;14.50;73.10;;;;;;5044538;28;20112;-92
2021/10/12 08:40:12;;;;;;;11.57;7.82;;;14.60;73.00;;;;;;5039449;28;20387;-92
2021/10/12 08:42:51;;;;;;;14.25;9.00;;;14.70;72.30;;;;;;5041723;28;20033;-91
2021/10/12 08:45:20;;;;;;;9.05;7.22;;;14.80;71.50;;;;;;5041797;28;20072;-92
2021/10/12 08:47:47;;;;;;;8.95;6.57;;;14.90;71.40;;;;;;5041469;28;20483;-92
2021/10/12 08:50:19;;;;;;;10.95;8.30;;;15.00;71.50;;;;;;5060708;28;20060;-92
2021/10/12 08:52:45;;;;;;;11.82;8.38;;;15.20;71.30;;;;;;5059998;28;20420;-92
2021/10/12 08:55:13;;;;;;;11.63;8.70;;;15.40;70.10;;;;;;5039395;28;20029;-91
2021/10/12 08:57:41;;;;;;;9.98;8.02;;;15.50;69.20;;;;;;5057535;28;20241;-91
2021/10/12 09:00:13;;;;;;;14.15;9.25;;;15.50;68.70;;;;;;5042460;28;20388;-91
2021/10/12 09:06:03;;;;;;;10.63;7.72;;;15.70;66.70;;;;;;5051251;28;20072;-92
2021/10/12 09:08:39;;;;;;;11.52;9.00;;;15.80;66.90;;;;;;5063633;28;20048;-92
2021/10/12 09:11:26;;;;;;;10.88;8.15;;;15.80;66.50;;;;;;5049119;28;20086;-93
2021/10/12 09:14:05;;;;;;;9.98;8.07;;;15.90;66.50;;;;;;5041750;28;20087;-96
2021/10/12 09:16:38;;;;;;;12.15;8.73;;;16.10;66.00;;;;;;5049451;28;20032;-93
2021/10/12 09:19:06;;;;;;;10.30;8.43;;;16.20;65.80;;;;;;5040977;28;20125;-93
2021/10/12 09:21:37;;;;;;;10.48;8.48;;;16.30;65.20;;;;;;5044894;28;20025;-93
2021/10/12 09:24:09;;;;;;;12.27;9.95;;;16.30;64.90;;;;;;5061253;28;20533;-93
2021/10/12 09:26:40;;;;;;;12.32;9.98;;;16.40;65.10;;;;;;5039509;28;20025;-94
2021/10/12 09:29:12;;;;;;;13.77;9.85;;;16.40;64.50;;;;;;5057467;28;20029;-91
2021/10/12 09:31:42;;;;;;;15.07;9.15;;;16.30;64.20;;;;;;5059211;28;20107;-92
2021/10/12 09:34:14;;;;;;;14.10;10.27;;;16.30;64.50;;;;;;5059714;28;20044;-92
2021/10/12 09:36:49;;;;;;;12.95;9.63;;;16.20;64.70;;;;;;5084149;28;20036;-95
2021/10/12 09:39:28;;;;;;;10.07;8.90;;;16.20;64.40;;;;;;5061907;28;20029;-93
2021/10/12 09:41:59;;;;;;;11.48;8.77;;;16.20;64.20;;;;;;5060228;28;20082;-92
2021/10/12 09:44:28;;;;;;;12.57;9.85;;;16.20;63.90;;;;;;5078338;28;20090;-92
2021/10/12 09:47:11;;;;;;;11.32;8.65;;;16.20;63.90;;;;;;5066345;28;20031;-91
2021/10/12 09:49:39;;;;;;;13.10;8.80;;;16.20;63.50;;;;;;5055899;28;20055;-91
2021/10/12 09:52:26;;;;;;;10.63;8.82;;;16.20;63.70;;;;;;5072812;28;20074;-93
2021/10/12 09:55:06;;;;;;;18.35;10.23;;;16.20;63.70;;;;;;5078816;28;20056;-93
2021/10/12 09:57:41;;;;;;;14.73;10.82;;;16.20;63.10;;;;;;5056608;28;20071;-91
2021/10/12 10:00:08;;;;;;;9.88;8.57;;;16.20;62.90;;;;;;5058799;28;20051;-91
2021/10/12 10:02:37;;;;;;;13.20;10.13;;;16.10;63.10;;;;;;5057099;28;20032;-93
2021/10/12 10:05:04;;;;;;;18.98;9.85;;;16.10;62.40;;;;;;5057474;28;20110;-91
2021/10/12 10:07:47;;;;;;;12.90;9.95;;;16.00;62.30;;;;;;5063172;28;20382;-95
2021/10/12 10:10:15;;;;;;;11.70;8.68;;;15.90;62.20;;;;;;5062309;28;20044;-93
2021/10/12 10:12:42;;;;;;;13.88;9.20;;;15.90;62.10;;;;;;5067117;28;20036;-94
2021/10/12 10:15:08;;;;;;;11.55;8.55;;;15.80;62.20;;;;;;5056833;28;20111;-93
2021/10/12 10:17:37;;;;;;;10.70;8.75;;;15.80;62.30;;;;;;5060911;28;20029;-92
2021/10/12 10:20:07;;;;;;;10.20;6.90;;;15.80;62.30;;;;;;5059935;28;20032;-94
2021/10/12 10:25:42;;;;;;;8.85;7.18;;;15.70;61.30;;;;;;5058527;28;20379;-93
2021/10/12 10:28:24;;;;;;;8.55;6.57;;;15.70;61.00;;;;;;5040651;28;20090;-91
2021/10/12 10:30:59;;;;;;;10.60;7.47;;;15.70;61.50;;;;;;5039728;28;20040;-92
2021/10/12 10:33:26;;;;;;;11.43;7.60;;;15.70;61.10;;;;;;5039871;28;20060;-92
2021/10/12 10:36:05;;;;;;;10.07;8.30;;;15.70;61.70;;;;;;5059490;28;20077;-93
2021/10/12 10:38:32;;;;;;;8.95;6.75;;;15.70;61.10;;;;;;5040048;28;20055;-94
2021/10/12 10:47:51;;;;;;;9.70;6.88;;;16.00;60.60;;;;;;5034688;28;20032;-92
2021/10/12 10:50:33;;;;;;;11.38;8.07;;;16.10;60.80;;;;;;5039568;28;20499;-92
2021/10/12 10:53:03;;;;;;;9.90;7.60;;;16.20;60.20;;;;;;5059490;28;20068;-92
2021/10/12 10:55:44;;;;;;;10.85;8.15;;;16.40;59.40;;;;;;5039735;28;20017;-92
2021/10/12 10:58:10;;;;;;;12.43;7.20;;;16.50;58.30;;;;;;5039611;28;20514;-91
2021/10/12 11:00:55;;;;;;;11.32;8.07;;;16.60;58.70;;;;;;5046639;28;20020;-91
2021/10/12 11:03:35;;;;;;;11.55;7.82;;;16.80;57.50;;;;;;5068814;28;20032;-91
2021/10/12 11:06:11;;;;;;;12.07;8.52;;;16.90;57.40;;;;;;5059915;28;20036;-90
2021/10/12 11:08:40;;;;;;;10.05;8.35;;;17.00;57.20;;;;;;5076864;28;20522;-90
2021/10/12 11:11:15;;;;;;;12.10;8.82;;;17.10;56.60;;;;;;5040563;28;20032;-92
2021/10/12 11:13:45;;;;;;;9.05;7.78;;;17.20;56.10;;;;;;5037577;28;20037;-91
2021/10/12 11:16:16;;;;;;;11.18;7.70;;;17.20;56.00;;;;;;5037232;28;20025;-91
2021/10/12 11:18:44;;;;;;;14.85;8.70;;;17.20;55.50;;;;;;5042295;28;20043;-90
2021/10/12 11:21:20;;;;;;;13.57;9.85;;;17.10;55.40;;;;;;5057983;28;20123;-91
2021/10/12 11:23:51;;;;;;;14.88;10.07;;;17.00;55.90;;;;;;5053445;28;20025;-91
2021/10/12 11:26:27;;;;;;;13.02;8.70;;;16.90;55.80;;;;;;5037894;28;20029;-91
2021/10/12 11:28:56;;;;;;;10.43;8.00;;;16.70;56.00;;;;;;5041571;28;20120;-91
2021/10/12 11:31:31;;;;;;;8.40;7.47;;;16.70;55.90;;;;;;5048935;28;20103;-92
2021/10/12 11:34:03;;;;;;;11.35;7.25;;;16.60;55.70;;;;;;5039022;28;20032;-91
2021/10/12 11:36:38;;;;;;;10.57;8.48;;;16.50;55.80;;;;;;5038691;28;20021;-91
2021/10/12 11:39:16;;;;;;;9.52;6.95;;;16.40;55.80;;;;;;5058058;28;20036;-91
2021/10/12 11:45:13;;;;;;;8.93;6.80;;;16.30;55.80;;;;;;4995417;28;20148;-90
2021/10/12 11:47:40;;;;;;;10.68;7.20;;;16.30;55.80;;;;;;5030430;28;20064;-91
2021/10/12 11:50:09;;;;;;;11.20;7.90;;;16.30;56.00;;;;;;5038687;28;20029;-90
2021/10/12 11:52:34;;;;;;;8.80;6.72;;;16.30;55.70;;;;;;5038043;28;20028;-91
2021/10/12 11:55:09;;;;;;;11.82;7.95;;;16.30;55.50;;;;;;5037820;28;20143;-91
2021/10/12 11:57:36;;;;;;;9.55;7.28;;;16.20;55.60;;;;;;5034067;28;20481;-91
2021/10/12 12:00:05;;;;;;;10.15;7.82;;;16.10;55.90;;;;;;5036543;28;20055;-90
2021/10/12 12:02:36;;;;;;;13.85;8.43;;;16.10;56.00;;;;;;5036771;28;20033;-90
2021/10/12 12:05:07;;;;;;;11.60;8.23;;;16.00;56.20;;;;;;5037911;28;20478;-91
2021/10/12 12:07:37;;;;;;;9.52;7.25;;;15.90;56.20;;;;;;5035114;28;20115;-91
2021/10/12 12:10:09;;;;;;;10.40;8.23;;;15.80;56.50;;;;;;5034836;28;20021;-92
2021/10/12 12:12:38;;;;;;;10.95;7.25;;;15.60;56.40;;;;;;5038903;28;20037;-93
2021/10/12 12:15:06;;;;;;;14.38;8.60;;;15.40;56.70;;;;;;5033186;28;20087;-91
2021/10/12 12:17:37;;;;;;;11.40;7.97;;;15.30;57.00;;;;;;5035270;28;20117;-91
2021/10/12 12:20:11;;;;;;;12.70;6.75;;;15.20;57.10;;;;;;5033723;28;20056;-91
2021/10/12 12:22:45;;;;;;;8.32;6.13;;;15.00;57.30;;;;;;5032197;28;20033;-91
2021/10/12 12:25:14;;;;;;;;;;;14.90;57.60;;;;;;5033165;28;20041;-91
2021/10/12 12:28:02;;;;;;;7.35;5.13;;;14.80;57.80;;;;;;5032813;28;19920;-91
2021/10/12 12:30:50;;;;;;;10.75;6.90;;;14.70;58.50;;;;;;5033501;28;20453;-91
2021/10/12 12:33:18;;;;;;;9.77;6.47;;;14.60;58.00;;;;;;5038066;28;20116;-91
2021/10/12 12:35:49;;;;;;;9.13;7.00;;;14.50;58.30;;;;;;5032005;28;20030;-90
2021/10/12 12:38:44;;;;;;;9.25;6.30;;;14.40;58.60;;;;;;5056079;28;20025;-90
2021/10/12 12:41:16;;;;;;;;;;;14.30;58.60;;;;;;5051064;28;20033;-91
2021/10/12 12:43:51;;;;;;;8.27;5.53;;;14.20;59.00;;;;;;5049481;28;19966;-90
2021/10/12 12:46:18;;;;;;;7.82;5.50;;;14.20;59.20;;;;;;5046977;28;20064;-92
2021/10/12 12:48:49;;;;;;;7.10;4.55;;;14.20;59.50;;;;;;5054556;28;20029;-90
2021/10/12 12:51:17;;;;;;;8.27;6.20;;;14.20;59.70;;;;;;5053689;28;20456;-91
2021/10/12 12:53:48;;;;;;;7.47;5.38;;;14.20;59.80;;;;;;5052516;28;20115;-90
2021/10/12 12:56:18;;;;;;;6.60;4.63;;;14.20;60.00;;;;;;5053070;28;20056;-90
2021/10/12 12:58:49;;;;;;;6.40;4.82;;;14.20;60.00;;;;;;5055369;28;20090;-91
2021/10/12 13:01:17;;;;;;;6.80;4.90;;;14.20;60.00;;;;;;5044835;28;20036;-92
2021/10/12 13:03:45;;;;;;;6.82;4.80;;;14.30;60.00;;;;;;5044621;28;20479;-92
2021/10/12 13:06:13;;;;;;;7.53;5.05;;;14.30;60.00;;;;;;5020434;28;20032;-93
2021/10/12 13:08:39;;;;;;;8.50;6.57;;;14.30;60.00;;;;;;5070583;28;20032;-92
2021/10/12 13:11:07;;;;;;;6.82;5.63;;;14.30;60.00;;;;;;5043965;28;20498;-92